sensor_id;sensor_type;location;lat;lon;timestamp;P1;durP1;ratioP1;P2;durP2;ratioP2
71637;SDS011;59485;43.542;-5.676;2023-04-01T00:00:57;28.20;;;4.95;;
71637;SDS011;59485;43.542;-5.676;2023-04-01T00:03:24;27.70;;;4.85;;
71637;SDS011;59485;43.542;-5.676;2023-04-01T00:05:54;29.65;;;5.60;;
71637;SDS011;59485;43.542;-5.676;2023-04-01T00:08:21;28.30;;;4.90;;
71637;SDS011;59485;43.542;-5.676;2023-04-01T00:10:46;24.60;;;4.38;;
71637;SDS011;59485;43.542;-5.676;2023-04-01T00:13:12;33.75;;;5.45;;
71637;SDS011;59485;43.542;-5.676;2023-04-01T00:15:38;27.10;;;4.87;;
71637;SDS011;59485;43.542;-5.676;2023-04-01T00:18:03;29.63;;;5.80;;
71637;SDS011;59485;43.542;-5.676;2023-04-01T00:20:29;27.30;;;5.43;;
71637;SDS011;59485;43.542;-5.676;2023-04-01T00:22:56;28.85;;;5.60;;
71637;SDS011;59485;43.542;-5.676;2023-04-01T00:25:22;27.77;;;5.80;;
71637;SDS011;59485;43.542;-5.676;2023-04-01T00:27:48;29.40;;;7.50;;
71637;SDS011;59485;43.542;-5.676;2023-04-01T00:30:14;38.10;;;7.32;;
71637;SDS011;59485;43.542;-5.676;2023-04-01T00:32:40;26.75;;;6.32;;
71637;SDS011;59485;43.542;-5.676;2023-04-01T00:35:05;26.10;;;5.93;;
71637;SDS011;59485;43.542;-5.676;2023-04-01T00:37:34;27.75;;;5.90;;
71637;SDS011;59485;43.542;-5.676;2023-04-01T00:40:00;35.60;;;7.77;;
71637;SDS011;59485;43.542;-5.676;2023-04-01T00:42:25;30.88;;;5.60;;
71637;SDS011;59485;43.542;-5.676;2023-04-01T00:44:52;33.73;;;6.43;;
71637;SDS011;59485;43.542;-5.676;2023-04-01T00:47:18;31.63;;;7.38;;
71637;SDS011;59485;43.542;-5.676;2023-04-01T00:49:48;31.25;;;7.07;;
71637;SDS011;59485;43.542;-5.676;2023-04-01T00:52:17;28.23;;;7.63;;
71637;SDS011;59485;43.542;-5.676;2023-04-01T00:54:47;31.55;;;6.72;;
71637;SDS011;59485;43.542;-5.676;2023-04-01T00:57:19;30.77;;;6.53;;
71637;SDS011;59485;43.542;-5.676;2023-04-01T00:59:50;27.63;;;6.40;;
71637;SDS011;59485;43.542;-5.676;2023-04-01T01:02:18;36.03;;;8.23;;
71637;SDS011;59485;43.542;-5.676;2023-04-01T01:04:45;34.80;;;9.23;;
71637;SDS011;59485;43.542;-5.676;2023-04-01T01:10:01;28.70;;;7.18;;
71637;SDS011;59485;43.542;-5.676;2023-04-01T01:15:26;29.88;;;7.40;;
71637;SDS011;59485;43.542;-5.676;2023-04-01T01:18:14;30.63;;;7.33;;
71637;SDS011;59485;43.542;-5.676;2023-04-01T01:29:09;41.65;;;8.70;;
71637;SDS011;59485;43.542;-5.676;2023-04-01T01:31:54;30.13;;;8.33;;
71637;SDS011;59485;43.542;-5.676;2023-04-01T01:38:16;34.13;;;7.95;;
71637;SDS011;59485;43.542;-5.676;2023-04-01T01:40:43;32.22;;;7.43;;
71637;SDS011;59485;43.542;-5.676;2023-04-01T01:43:13;31.38;;;9.20;;
71637;SDS011;59485;43.542;-5.676;2023-04-01T01:45:44;39.03;;;9.87;;
71637;SDS011;59485;43.542;-5.676;2023-04-01T01:48:14;43.70;;;9.32;;
71637;SDS011;59485;43.542;-5.676;2023-04-01T01:50:41;36.33;;;10.38;;
71637;SDS011;59485;43.542;-5.676;2023-04-01T01:53:11;31.33;;;9.13;;
71637;SDS011;59485;43.542;-5.676;2023-04-01T01:55:38;38.58;;;9.27;;
71637;SDS011;59485;43.542;-5.676;2023-04-01T01:58:13;34.20;;;8.80;;
71637;SDS011;59485;43.542;-5.676;2023-04-01T02:00:40;35.83;;;10.15;;
71637;SDS011;59485;43.542;-5.676;2023-04-01T02:03:10;32.15;;;8.63;;
71637;SDS011;59485;43.542;-5.676;2023-04-01T02:05:38;33.72;;;10.23;;
71637;SDS011;59485;43.542;-5.676;2023-04-01T02:08:10;33.95;;;7.38;;
71637;SDS011;59485;43.542;-5.676;2023-04-01T02:10:44;31.70;;;7.60;;
71637;SDS011;59485;43.542;-5.676;2023-04-01T02:14:19;29.98;;;6.60;;
71637;SDS011;59485;43.542;-5.676;2023-04-01T02:16:51;32.05;;;7.43;;
71637;SDS011;59485;43.542;-5.676;2023-04-01T02:19:25;34.28;;;6.53;;
71637;SDS011;59485;43.542;-5.676;2023-04-01T02:21:57;29.23;;;5.85;;
71637;SDS011;59485;43.542;-5.676;2023-04-01T02:24:26;28.23;;;5.07;;
71637;SDS011;59485;43.542;-5.676;2023-04-01T02:26:57;31.73;;;5.15;;
71637;SDS011;59485;43.542;-5.676;2023-04-01T02:29:24;27.42;;;3.45;;
71637;SDS011;59485;43.542;-5.676;2023-04-01T02:31:50;24.50;;;4.65;;
71637;SDS011;59485;43.542;-5.676;2023-04-01T02:34:18;20.87;;;3.90;;
71637;SDS011;59485;43.542;-5.676;2023-04-01T02:36:44;22.58;;;3.50;;
71637;SDS011;59485;43.542;-5.676;2023-04-01T02:39:11;20.90;;;3.30;;
71637;SDS011;59485;43.542;-5.676;2023-04-01T02:41:39;20.55;;;2.70;;
71637;SDS011;59485;43.542;-5.676;2023-04-01T02:44:06;22.23;;;2.70;;
71637;SDS011;59485;43.542;-5.676;2023-04-01T02:46:32;18.80;;;1.87;;
71637;SDS011;59485;43.542;-5.676;2023-04-01T02:48:58;19.63;;;2.72;;
71637;SDS011;59485;43.542;-5.676;2023-04-01T02:51:25;17.83;;;2.70;;
71637;SDS011;59485;43.542;-5.676;2023-04-01T02:53:50;18.05;;;2.22;;
71637;SDS011;59485;43.542;-5.676;2023-04-01T02:56:16;20.43;;;2.83;;
71637;SDS011;59485;43.542;-5.676;2023-04-01T02:58:42;19.02;;;2.33;;
71637;SDS011;59485;43.542;-5.676;2023-04-01T03:01:07;22.50;;;2.67;;
71637;SDS011;59485;43.542;-5.676;2023-04-01T03:03:33;18.63;;;3.10;;
71637;SDS011;59485;43.542;-5.676;2023-04-01T03:06:04;21.20;;;2.50;;
71637;SDS011;59485;43.542;-5.676;2023-04-01T03:08:33;24.30;;;3.13;;
71637;SDS011;59485;43.542;-5.676;2023-04-01T03:10:59;22.58;;;3.10;;
71637;SDS011;59485;43.542;-5.676;2023-04-01T03:13:25;23.03;;;3.00;;
71637;SDS011;59485;43.542;-5.676;2023-04-01T03:15:51;29.67;;;4.35;;
71637;SDS011;59485;43.542;-5.676;2023-04-01T03:18:16;20.17;;;3.37;;
71637;SDS011;59485;43.542;-5.676;2023-04-01T03:20:42;23.38;;;3.17;;
71637;SDS011;59485;43.542;-5.676;2023-04-01T03:23:10;20.80;;;3.28;;
71637;SDS011;59485;43.542;-5.676;2023-04-01T03:25:36;24.47;;;3.67;;
71637;SDS011;59485;43.542;-5.676;2023-04-01T03:28:01;25.67;;;3.80;;
71637;SDS011;59485;43.542;-5.676;2023-04-01T03:30:27;23.27;;;3.60;;
71637;SDS011;59485;43.542;-5.676;2023-04-01T03:32:54;22.20;;;3.90;;
71637;SDS011;59485;43.542;-5.676;2023-04-01T03:35:20;26.17;;;4.10;;
71637;SDS011;59485;43.542;-5.676;2023-04-01T03:37:46;27.03;;;4.37;;
71637;SDS011;59485;43.542;-5.676;2023-04-01T03:40:11;35.90;;;5.38;;
71637;SDS011;59485;43.542;-5.676;2023-04-01T03:42:37;33.07;;;4.93;;
71637;SDS011;59485;43.542;-5.676;2023-04-01T03:45:03;30.13;;;4.60;;
71637;SDS011;59485;43.542;-5.676;2023-04-01T03:47:29;30.90;;;5.20;;
71637;SDS011;59485;43.542;-5.676;2023-04-01T03:49:55;28.08;;;6.05;;
71637;SDS011;59485;43.542;-5.676;2023-04-01T03:52:21;31.17;;;5.50;;
71637;SDS011;59485;43.542;-5.676;2023-04-01T03:54:46;27.65;;;5.10;;
71637;SDS011;59485;43.542;-5.676;2023-04-01T03:57:12;37.63;;;8.07;;
71637;SDS011;59485;43.542;-5.676;2023-04-01T03:59:37;26.00;;;7.30;;
71637;SDS011;59485;43.542;-5.676;2023-04-01T04:02:03;21.93;;;6.03;;
71637;SDS011;59485;43.542;-5.676;2023-04-01T04:04:28;24.53;;;6.03;;
71637;SDS011;59485;43.542;-5.676;2023-04-01T04:06:55;22.70;;;6.10;;
71637;SDS011;59485;43.542;-5.676;2023-04-01T04:09:21;23.70;;;6.13;;
71637;SDS011;59485;43.542;-5.676;2023-04-01T04:11:47;24.15;;;7.05;;
71637;SDS011;59485;43.542;-5.676;2023-04-01T04:14:13;26.15;;;7.78;;
71637;SDS011;59485;43.542;-5.676;2023-04-01T04:16:39;23.67;;;8.53;;
71637;SDS011;59485;43.542;-5.676;2023-04-01T04:19:04;28.20;;;7.57;;
71637;SDS011;59485;43.542;-5.676;2023-04-01T04:21:30;27.48;;;7.90;;
71637;SDS011;59485;43.542;-5.676;2023-04-01T04:23:56;25.87;;;7.57;;
71637;SDS011;59485;43.542;-5.676;2023-04-01T04:26:21;32.67;;;7.50;;
71637;SDS011;59485;43.542;-5.676;2023-04-01T04:28:46;22.58;;;6.78;;
71637;SDS011;59485;43.542;-5.676;2023-04-01T04:31:19;21.55;;;6.10;;
71637;SDS011;59485;43.542;-5.676;2023-04-01T04:33:46;18.53;;;6.13;;
71637;SDS011;59485;43.542;-5.676;2023-04-01T04:36:12;20.75;;;6.40;;
71637;SDS011;59485;43.542;-5.676;2023-04-01T04:38:41;21.05;;;7.70;;
71637;SDS011;59485;43.542;-5.676;2023-04-01T04:41:13;23.70;;;8.20;;
71637;SDS011;59485;43.542;-5.676;2023-04-01T04:43:40;20.35;;;7.13;;
71637;SDS011;59485;43.542;-5.676;2023-04-01T04:46:09;18.20;;;6.93;;
71637;SDS011;59485;43.542;-5.676;2023-04-01T04:48:35;25.30;;;7.75;;
71637;SDS011;59485;43.542;-5.676;2023-04-01T04:51:02;25.87;;;7.63;;
71637;SDS011;59485;43.542;-5.676;2023-04-01T04:53:28;24.25;;;8.27;;
71637;SDS011;59485;43.542;-5.676;2023-04-01T04:55:54;24.58;;;8.52;;
71637;SDS011;59485;43.542;-5.676;2023-04-01T04:58:20;22.15;;;8.45;;
71637;SDS011;59485;43.542;-5.676;2023-04-01T05:00:47;23.90;;;8.10;;
71637;SDS011;59485;43.542;-5.676;2023-04-01T05:03:12;26.80;;;8.60;;
71637;SDS011;59485;43.542;-5.676;2023-04-01T05:05:39;28.27;;;9.68;;
71637;SDS011;59485;43.542;-5.676;2023-04-01T05:08:04;25.80;;;9.70;;
71637;SDS011;59485;43.542;-5.676;2023-04-01T05:10:30;31.13;;;10.15;;
71637;SDS011;59485;43.542;-5.676;2023-04-01T05:12:56;32.50;;;10.60;;
71637;SDS011;59485;43.542;-5.676;2023-04-01T05:15:23;27.50;;;11.30;;
71637;SDS011;59485;43.542;-5.676;2023-04-01T05:17:48;31.20;;;10.67;;
71637;SDS011;59485;43.542;-5.676;2023-04-01T05:20:14;28.73;;;10.57;;
71637;SDS011;59485;43.542;-5.676;2023-04-01T05:22:40;33.30;;;11.40;;
71637;SDS011;59485;43.542;-5.676;2023-04-01T05:25:06;25.52;;;11.10;;
71637;SDS011;59485;43.542;-5.676;2023-04-01T05:27:32;34.33;;;12.90;;
71637;SDS011;59485;43.542;-5.676;2023-04-01T05:29:58;26.57;;;11.60;;
71637;SDS011;59485;43.542;-5.676;2023-04-01T05:32:23;25.00;;;12.43;;
71637;SDS011;59485;43.542;-5.676;2023-04-01T05:34:52;35.60;;;20.25;;
71637;SDS011;59485;43.542;-5.676;2023-04-01T05:37:19;31.98;;;18.05;;
71637;SDS011;59485;43.542;-5.676;2023-04-01T05:39:44;34.83;;;14.73;;
71637;SDS011;59485;43.542;-5.676;2023-04-01T05:42:10;31.40;;;12.30;;
71637;SDS011;59485;43.542;-5.676;2023-04-01T05:44:36;23.30;;;8.80;;
71637;SDS011;59485;43.542;-5.676;2023-04-01T05:47:02;23.27;;;8.82;;
71637;SDS011;59485;43.542;-5.676;2023-04-01T05:49:28;20.83;;;8.25;;
71637;SDS011;59485;43.542;-5.676;2023-04-01T05:51:54;22.63;;;7.60;;
71637;SDS011;59485;43.542;-5.676;2023-04-01T05:54:20;19.85;;;7.63;;
71637;SDS011;59485;43.542;-5.676;2023-04-01T05:56:45;22.10;;;7.40;;
71637;SDS011;59485;43.542;-5.676;2023-04-01T05:59:11;19.67;;;6.90;;
71637;SDS011;59485;43.542;-5.676;2023-04-01T06:01:37;19.52;;;6.50;;
71637;SDS011;59485;43.542;-5.676;2023-04-01T06:04:04;20.30;;;7.03;;
71637;SDS011;59485;43.542;-5.676;2023-04-01T06:08:56;16.92;;;6.78;;
71637;SDS011;59485;43.542;-5.676;2023-04-01T06:33:14;18.88;;;5.60;;
71637;SDS011;59485;43.542;-5.676;2023-04-01T06:41:44;23.67;;;6.93;;
71637;SDS011;59485;43.542;-5.676;2023-04-01T06:47:19;16.33;;;4.30;;
71637;SDS011;59485;43.542;-5.676;2023-04-01T06:58:25;17.02;;;4.15;;
71637;SDS011;59485;43.542;-5.676;2023-04-01T07:00:58;16.90;;;4.32;;
71637;SDS011;59485;43.542;-5.676;2023-04-01T07:03:35;17.05;;;5.00;;
71637;SDS011;59485;43.542;-5.676;2023-04-01T07:06:06;16.58;;;5.75;;
71637;SDS011;59485;43.542;-5.676;2023-04-01T07:08:37;12.13;;;4.40;;
71637;SDS011;59485;43.542;-5.676;2023-04-01T07:11:06;16.63;;;4.55;;
71637;SDS011;59485;43.542;-5.676;2023-04-01T07:19:18;10.68;;;2.88;;
71637;SDS011;59485;43.542;-5.676;2023-04-01T07:21:52;11.97;;;2.70;;
71637;SDS011;59485;43.542;-5.676;2023-04-01T07:26:54;10.20;;;2.88;;
71637;SDS011;59485;43.542;-5.676;2023-04-01T07:29:20;8.70;;;2.35;;
71637;SDS011;59485;43.542;-5.676;2023-04-01T07:40:21;10.40;;;2.50;;
71637;SDS011;59485;43.542;-5.676;2023-04-01T07:45:29;8.60;;;2.15;;
71637;SDS011;59485;43.542;-5.676;2023-04-01T07:53:34;7.78;;;1.75;;
71637;SDS011;59485;43.542;-5.676;2023-04-01T07:56:15;9.40;;;2.22;;
71637;SDS011;59485;43.542;-5.676;2023-04-01T08:07:33;8.90;;;1.80;;
71637;SDS011;59485;43.542;-5.676;2023-04-01T08:21:56;8.07;;;2.30;;
71637;SDS011;59485;43.542;-5.676;2023-04-01T08:24:45;6.55;;;1.65;;
71637;SDS011;59485;43.542;-5.676;2023-04-01T08:27:20;9.05;;;1.58;;
71637;SDS011;59485;43.542;-5.676;2023-04-01T08:29:53;8.80;;;1.92;;
71637;SDS011;59485;43.542;-5.676;2023-04-01T08:32:34;6.65;;;1.67;;
71637;SDS011;59485;43.542;-5.676;2023-04-01T08:37:38;7.00;;;1.58;;
71637;SDS011;59485;43.542;-5.676;2023-04-01T08:45:44;15.02;;;3.55;;
71637;SDS011;59485;43.542;-5.676;2023-04-01T08:51:13;13.15;;;2.08;;
71637;SDS011;59485;43.542;-5.676;2023-04-01T08:56:34;13.20;;;2.25;;
71637;SDS011;59485;43.542;-5.676;2023-04-01T09:34:44;13.05;;;1.60;;
71637;SDS011;59485;43.542;-5.676;2023-04-01T09:40:03;12.75;;;1.75;;
71637;SDS011;59485;43.542;-5.676;2023-04-01T09:51:05;12.70;;;1.98;;
71637;SDS011;59485;43.542;-5.676;2023-04-01T09:59:27;10.00;;;1.80;;
71637;SDS011;59485;43.542;-5.676;2023-04-01T10:02:23;18.63;;;2.75;;
71637;SDS011;59485;43.542;-5.676;2023-04-01T10:13:30;24.23;;;4.70;;
71637;SDS011;59485;43.542;-5.676;2023-04-01T10:16:11;18.77;;;4.68;;
71637;SDS011;59485;43.542;-5.676;2023-04-01T10:18:53;16.48;;;4.28;;
71637;SDS011;59485;43.542;-5.676;2023-04-01T10:51:29;12.20;;;2.97;;
71637;SDS011;59485;43.542;-5.676;2023-04-01T11:11:20;11.65;;;1.80;;
71637;SDS011;59485;43.542;-5.676;2023-04-01T11:27:33;7.53;;;0.90;;
71637;SDS011;59485;43.542;-5.676;2023-04-01T11:30:22;9.88;;;1.10;;
71637;SDS011;59485;43.542;-5.676;2023-04-01T12:08:39;9.98;;;1.13;;
71637;SDS011;59485;43.542;-5.676;2023-04-01T12:19:48;9.83;;;1.10;;
71637;SDS011;59485;43.542;-5.676;2023-04-01T12:22:49;11.25;;;0.88;;
71637;SDS011;59485;43.542;-5.676;2023-04-01T12:30:48;8.93;;;1.83;;
71637;SDS011;59485;43.542;-5.676;2023-04-01T12:36:18;11.15;;;1.80;;
71637;SDS011;59485;43.542;-5.676;2023-04-01T12:50:32;15.02;;;1.80;;
71637;SDS011;59485;43.542;-5.676;2023-04-01T12:55:39;16.38;;;1.73;;
71637;SDS011;59485;43.542;-5.676;2023-04-01T13:17:53;13.80;;;1.98;;
71637;SDS011;59485;43.542;-5.676;2023-04-01T13:29:17;12.37;;;1.00;;
71637;SDS011;59485;43.542;-5.676;2023-04-01T13:45:46;5.15;;;0.60;;
71637;SDS011;59485;43.542;-5.676;2023-04-01T13:51:28;12.20;;;0.90;;
71637;SDS011;59485;43.542;-5.676;2023-04-01T13:54:20;10.05;;;1.20;;
71637;SDS011;59485;43.542;-5.676;2023-04-01T14:05:46;12.05;;;1.20;;
71637;SDS011;59485;43.542;-5.676;2023-04-01T14:08:49;10.93;;;1.73;;
71637;SDS011;59485;43.542;-5.676;2023-04-01T14:28:30;12.45;;;1.48;;
71637;SDS011;59485;43.542;-5.676;2023-04-01T14:34:43;15.48;;;2.15;;
71637;SDS011;59485;43.542;-5.676;2023-04-01T14:36:49;14.43;;;1.10;;
71637;SDS011;59485;43.542;-5.676;2023-04-01T14:50:09;19.07;;;1.83;;
71637;SDS011;59485;43.542;-5.676;2023-04-01T14:52:40;18.25;;;1.63;;
71637;SDS011;59485;43.542;-5.676;2023-04-01T15:00:59;13.57;;;1.85;;
71637;SDS011;59485;43.542;-5.676;2023-04-01T15:12:00;16.42;;;2.35;;
71637;SDS011;59485;43.542;-5.676;2023-04-01T15:20:02;18.35;;;1.60;;
71637;SDS011;59485;43.542;-5.676;2023-04-01T15:36:13;15.85;;;1.77;;
71637;SDS011;59485;43.542;-5.676;2023-04-01T15:44:24;17.67;;;1.90;;
71637;SDS011;59485;43.542;-5.676;2023-04-01T15:55:50;17.13;;;2.92;;
71637;SDS011;59485;43.542;-5.676;2023-04-01T15:58:44;14.23;;;1.83;;
71637;SDS011;59485;43.542;-5.676;2023-04-01T16:01:26;9.13;;;1.15;;
71637;SDS011;59485;43.542;-5.676;2023-04-01T16:28:54;13.23;;;1.90;;
71637;SDS011;59485;43.542;-5.676;2023-04-01T16:34:38;13.75;;;1.95;;
71637;SDS011;59485;43.542;-5.676;2023-04-01T16:45:26;10.82;;;1.27;;
71637;SDS011;59485;43.542;-5.676;2023-04-01T16:48:19;9.90;;;1.20;;
71637;SDS011;59485;43.542;-5.676;2023-04-01T16:58:56;14.38;;;2.42;;
71637;SDS011;59485;43.542;-5.676;2023-04-01T17:01:33;10.52;;;1.67;;
71637;SDS011;59485;43.542;-5.676;2023-04-01T17:04:57;10.05;;;1.70;;
71637;SDS011;59485;43.542;-5.676;2023-04-01T17:16:15;14.48;;;1.83;;
71637;SDS011;59485;43.542;-5.676;2023-04-01T17:35:13;16.40;;;1.50;;
71637;SDS011;59485;43.542;-5.676;2023-04-01T17:40:48;16.15;;;1.67;;
71637;SDS011;59485;43.542;-5.676;2023-04-01T17:45:54;17.85;;;2.20;;
71637;SDS011;59485;43.542;-5.676;2023-04-01T17:51:07;10.82;;;1.45;;
71637;SDS011;59485;43.542;-5.676;2023-04-01T17:59:36;19.13;;;2.08;;
71637;SDS011;59485;43.542;-5.676;2023-04-01T18:04:53;19.55;;;2.03;;
71637;SDS011;59485;43.542;-5.676;2023-04-01T18:10:25;18.27;;;1.60;;
71637;SDS011;59485;43.542;-5.676;2023-04-01T18:13:19;12.68;;;1.13;;
71637;SDS011;59485;43.542;-5.676;2023-04-01T18:26:38;14.20;;;1.25;;
71637;SDS011;59485;43.542;-5.676;2023-04-01T18:29:17;13.83;;;1.97;;
71637;SDS011;59485;43.542;-5.676;2023-04-01T18:37:17;11.30;;;1.00;;
71637;SDS011;59485;43.542;-5.676;2023-04-01T18:39:52;11.32;;;1.60;;
71637;SDS011;59485;43.542;-5.676;2023-04-01T18:45:17;15.93;;;2.03;;
71637;SDS011;59485;43.542;-5.676;2023-04-01T18:50:39;12.38;;;1.38;;
71637;SDS011;59485;43.542;-5.676;2023-04-01T18:53:15;11.25;;;1.15;;
71637;SDS011;59485;43.542;-5.676;2023-04-01T18:56:06;21.23;;;1.73;;
71637;SDS011;59485;43.542;-5.676;2023-04-01T18:58:54;10.63;;;1.55;;
71637;SDS011;59485;43.542;-5.676;2023-04-01T19:09:50;14.90;;;1.83;;
71637;SDS011;59485;43.542;-5.676;2023-04-01T19:21:22;11.90;;;1.38;;
71637;SDS011;59485;43.542;-5.676;2023-04-01T19:24:10;19.60;;;1.33;;
71637;SDS011;59485;43.542;-5.676;2023-04-01T19:27:11;14.95;;;1.27;;
71637;SDS011;59485;43.542;-5.676;2023-04-01T19:35:11;12.57;;;1.50;;
71637;SDS011;59485;43.542;-5.676;2023-04-01T19:50:57;14.43;;;2.90;;
71637;SDS011;59485;43.542;-5.676;2023-04-01T19:53:34;15.18;;;1.52;;
71637;SDS011;59485;43.542;-5.676;2023-04-01T19:56:12;13.93;;;1.75;;
71637;SDS011;59485;43.542;-5.676;2023-04-01T20:01:32;13.10;;;1.95;;
71637;SDS011;59485;43.542;-5.676;2023-04-01T20:04:05;15.93;;;2.20;;
71637;SDS011;59485;43.542;-5.676;2023-04-01T20:15:34;14.40;;;1.38;;
71637;SDS011;59485;43.542;-5.676;2023-04-01T20:18:08;14.67;;;1.10;;
71637;SDS011;59485;43.542;-5.676;2023-04-01T20:20:57;21.35;;;2.35;;
71637;SDS011;59485;43.542;-5.676;2023-04-01T20:29:15;19.52;;;1.95;;
71637;SDS011;59485;43.542;-5.676;2023-04-01T20:31:47;12.67;;;1.67;;
71637;SDS011;59485;43.542;-5.676;2023-04-01T20:39:50;11.55;;;1.10;;
71637;SDS011;59485;43.542;-5.676;2023-04-01T20:42:35;16.27;;;2.17;;
71637;SDS011;59485;43.542;-5.676;2023-04-01T20:50:40;13.45;;;1.65;;
71637;SDS011;59485;43.542;-5.676;2023-04-01T20:53:15;22.33;;;1.50;;
71637;SDS011;59485;43.542;-5.676;2023-04-01T21:06:48;15.63;;;1.23;;
71637;SDS011;59485;43.542;-5.676;2023-04-01T21:14:54;13.63;;;1.58;;
71637;SDS011;59485;43.542;-5.676;2023-04-01T21:31:05;17.90;;;2.87;;
71637;SDS011;59485;43.542;-5.676;2023-04-01T21:45:19;18.40;;;1.90;;
71637;SDS011;59485;43.542;-5.676;2023-04-01T21:47:56;14.32;;;1.27;;
71637;SDS011;59485;43.542;-5.676;2023-04-01T21:50:45;13.10;;;1.25;;
71637;SDS011;59485;43.542;-5.676;2023-04-01T21:59:48;14.87;;;1.50;;
71637;SDS011;59485;43.542;-5.676;2023-04-01T22:06:29;15.15;;;1.90;;
71637;SDS011;59485;43.542;-5.676;2023-04-01T22:08:54;21.83;;;3.15;;
71637;SDS011;59485;43.542;-5.676;2023-04-01T22:17:04;13.82;;;1.70;;
71637;SDS011;59485;43.542;-5.676;2023-04-01T22:25:04;15.68;;;2.05;;
71637;SDS011;59485;43.542;-5.676;2023-04-01T22:30:23;15.57;;;3.20;;
71637;SDS011;59485;43.542;-5.676;2023-04-01T22:32:50;17.48;;;2.20;;
71637;SDS011;59485;43.542;-5.676;2023-04-01T22:35:29;19.02;;;2.13;;
71637;SDS011;59485;43.542;-5.676;2023-04-01T22:43:22;26.58;;;2.20;;
71637;SDS011;59485;43.542;-5.676;2023-04-01T22:56:54;16.92;;;2.53;;
71637;SDS011;59485;43.542;-5.676;2023-04-01T23:01:58;21.57;;;2.37;;
71637;SDS011;59485;43.542;-5.676;2023-04-01T23:04:31;20.02;;;2.50;;
71637;SDS011;59485;43.542;-5.676;2023-04-01T23:07:02;13.43;;;2.20;;
71637;SDS011;59485;43.542;-5.676;2023-04-01T23:09:43;17.25;;;2.28;;
71637;SDS011;59485;43.542;-5.676;2023-04-01T23:12:12;14.77;;;2.13;;
71637;SDS011;59485;43.542;-5.676;2023-04-01T23:20:14;16.60;;;2.85;;
71637;SDS011;59485;43.542;-5.676;2023-04-01T23:25:32;13.73;;;3.07;;
71637;SDS011;59485;43.542;-5.676;2023-04-01T23:28:26;22.63;;;4.97;;
71637;SDS011;59485;43.542;-5.676;2023-04-01T23:31:31;19.73;;;5.32;;
71637;SDS011;59485;43.542;-5.676;2023-04-01T23:34:01;24.48;;;4.97;;
71637;SDS011;59485;43.542;-5.676;2023-04-01T23:36:29;16.75;;;4.38;;
71637;SDS011;59485;43.542;-5.676;2023-04-01T23:39:03;20.00;;;4.90;;
71637;SDS011;59485;43.542;-5.676;2023-04-01T23:41:31;22.40;;;4.50;;
71637;SDS011;59485;43.542;-5.676;2023-04-01T23:44:00;16.95;;;3.03;;
71637;SDS011;59485;43.542;-5.676;2023-04-01T23:46:31;19.25;;;2.42;;
71637;SDS011;59485;43.542;-5.676;2023-04-01T23:49:00;14.60;;;2.13;;
71637;SDS011;59485;43.542;-5.676;2023-04-01T23:51:37;16.33;;;2.97;;
71637;SDS011;59485;43.542;-5.676;2023-04-01T23:54:11;12.52;;;1.30;;
71637;SDS011;59485;43.542;-5.676;2023-04-01T23:56:46;11.15;;;1.75;;
71637;SDS011;59485;43.542;-5.676;2023-04-01T23:59:16;17.48;;;2.88;;
